Time;durP1;ratioP1;P1;durP2;ratioP2;P2;SDS_P1;SDS_P2;PMS_P1;PMS_P2;Temp;Humidity;BMP_temperature;BMP_pressure;BME280_temperature;BME280_humidity;BME280_pressure;Samples;Min_cycle;Max_cycle;Signal;HPM_P1;HPM_P2
2023/05/28 00:00:45;;;;;;;6.90;6.20;;;13.60;90.20;;;;;;5060562;27;20492;-61
2023/05/28 00:03:17;;;;;;;10.30;7.90;;;13.50;90.00;;;;;;5101351;27;21001;-61
2023/05/28 00:05:44;;;;;;;16.00;8.27;;;13.50;90.00;;;;;;5068525;27;21235;-61
2023/05/28 00:08:13;;;;;;;11.40;7.90;;;13.40;90.30;;;;;;5087944;27;20513;-61
2023/05/28 00:10:41;;;;;;;10.00;7.27;;;13.30;90.50;;;;;;5074173;28;20485;-62
2023/05/28 00:13:07;;;;;;;9.67;7.27;;;13.30;90.30;;;;;;5086624;27;20481;-61
2023/05/28 00:15:35;;;;;;;8.07;7.07;;;13.30;90.20;;;;;;5086207;27;20482;-61
2023/05/28 00:18:02;;;;;;;14.27;6.93;;;13.20;89.80;;;;;;5095079;27;20917;-61
2023/05/28 00:20:31;;;;;;;7.33;6.60;;;13.20;89.60;;;;;;5073584;27;20996;-61
2023/05/28 00:22:58;;;;;;;10.47;7.47;;;13.20;90.10;;;;;;5054623;27;20783;-62
2023/05/28 00:25:24;;;;;;;7.47;6.67;;;13.00;90.20;;;;;;5079153;28;20482;-60
2023/05/28 00:27:51;;;;;;;7.50;6.07;;;13.00;90.40;;;;;;5069634;27;20464;-61
2023/05/28 00:30:18;;;;;;;10.43;7.23;;;12.90;90.10;;;;;;5090707;27;21050;-60
2023/05/28 00:32:45;;;;;;;12.67;7.47;;;12.90;90.50;;;;;;5086444;27;20574;-60
2023/05/28 00:35:12;;;;;;;8.57;7.60;;;12.90;90.80;;;;;;5068403;27;20467;-60
2023/05/28 00:37:40;;;;;;;9.23;7.73;;;12.80;90.40;;;;;;5082698;27;20472;-61
2023/05/28 00:40:08;;;;;;;11.43;9.17;;;12.80;90.50;;;;;;5083155;27;20490;-61
2023/05/28 00:42:35;;;;;;;13.63;7.43;;;12.80;90.70;;;;;;5080008;27;20491;-60
2023/05/28 00:45:02;;;;;;;13.47;7.60;;;12.90;90.90;;;;;;5070254;27;20479;-61
2023/05/28 00:47:29;;;;;;;11.53;7.50;;;12.80;90.80;;;;;;5071360;28;20475;-60
2023/05/28 00:49:57;;;;;;;11.03;7.93;;;12.70;90.60;;;;;;5080180;27;21012;-61
2023/05/28 00:52:24;;;;;;;9.83;7.00;;;12.60;90.40;;;;;;5074213;27;20594;-60
2023/05/28 00:54:55;;;;;;;11.20;7.40;;;12.40;90.50;;;;;;5092096;27;20486;-60
2023/05/28 00:57:23;;;;;;;10.33;6.67;;;12.20;90.90;;;;;;5058517;27;20484;-61
2023/05/28 00:59:51;;;;;;;8.23;6.27;;;12.10;91.00;;;;;;5093453;27;20469;-61
2023/05/28 01:02:18;;;;;;;10.17;7.63;;;12.00;90.80;;;;;;5080278;27;20491;-60
2023/05/28 01:04:45;;;;;;;12.60;6.37;;;12.00;90.60;;;;;;5081040;27;20494;-60
2023/05/28 01:07:11;;;;;;;8.73;7.87;;;12.00;90.80;;;;;;5074553;27;20464;-61
2023/05/28 01:09:39;;;;;;;11.00;7.23;;;12.00;90.90;;;;;;5083922;27;20485;-61
2023/05/28 01:12:09;;;;;;;17.97;8.47;;;12.00;91.20;;;;;;5085683;27;21146;-61
2023/05/28 01:14:37;;;;;;;9.27;7.33;;;12.10;91.00;;;;;;5079610;27;20849;-61
2023/05/28 01:17:06;;;;;;;13.30;8.13;;;12.10;90.80;;;;;;5070924;28;20857;-61
2023/05/28 01:19:33;;;;;;;9.67;7.00;;;12.20;91.10;;;;;;5059303;27;20474;-60
2023/05/28 01:22:04;;;;;;;7.47;6.73;;;12.20;91.10;;;;;;5104170;27;20595;-61
2023/05/28 01:24:33;;;;;;;10.70;7.33;;;12.20;90.70;;;;;;5072182;28;20787;-61
2023/05/28 01:27:01;;;;;;;9.00;6.67;;;12.20;90.50;;;;;;5071676;28;20506;-61
2023/05/28 01:29:28;;;;;;;9.70;7.00;;;12.20;90.90;;;;;;5076893;27;20468;-61
2023/05/28 01:31:55;;;;;;;8.70;7.17;;;12.10;90.90;;;;;;5083760;27;20473;-61
2023/05/28 01:34:23;;;;;;;10.53;6.30;;;12.10;91.00;;;;;;5091527;27;20490;-60
2023/05/28 01:36:57;;;;;;;11.90;7.20;;;12.10;90.70;;;;;;5081411;27;20826;-60
2023/05/28 01:39:27;;;;;;;12.67;7.97;;;12.10;90.70;;;;;;5071360;27;20489;-61
2023/05/28 01:41:56;;;;;;;9.73;7.10;;;12.10;91.00;;;;;;5087786;27;20832;-61
2023/05/28 01:44:24;;;;;;;7.53;6.10;;;12.10;90.70;;;;;;5070208;28;20490;-60
2023/05/28 01:46:54;;;;;;;10.70;6.63;;;12.00;90.70;;;;;;5070413;28;20471;-61
2023/05/28 01:49:22;;;;;;;7.30;5.77;;;11.90;90.50;;;;;;5059809;28;20536;-60
2023/05/28 01:51:48;;;;;;;9.00;6.10;;;11.80;90.70;;;;;;5068613;28;20844;-61
2023/05/28 01:54:15;;;;;;;8.33;6.30;;;11.70;90.70;;;;;;5058397;27;20483;-60
2023/05/28 01:56:42;;;;;;;7.83;5.43;;;11.60;90.80;;;;;;5092786;27;20851;-60
2023/05/28 01:59:10;;;;;;;10.60;6.00;;;11.50;91.00;;;;;;5077032;28;20490;-60
2023/05/28 02:01:37;;;;;;;9.90;6.10;;;11.40;91.10;;;;;;5070865;27;20471;-60
2023/05/28 02:04:04;;;;;;;9.03;5.50;;;11.40;91.00;;;;;;5067868;28;21300;-60
2023/05/28 02:06:32;;;;;;;7.40;5.83;;;11.40;91.00;;;;;;5067880;28;20482;-61
2023/05/28 02:08:59;;;;;;;8.07;5.43;;;11.40;91.10;;;;;;5079054;27;20488;-60
2023/05/28 02:11:26;;;;;;;11.23;6.20;;;11.40;90.80;;;;;;5064609;27;20988;-60
2023/05/28 02:13:54;;;;;;;6.57;5.30;;;11.40;90.70;;;;;;5083911;27;20564;-60
2023/05/28 02:16:22;;;;;;;8.70;5.47;;;11.50;91.00;;;;;;5069530;28;20502;-60
2023/05/28 02:18:52;;;;;;;8.23;6.20;;;11.50;91.20;;;;;;5068564;28;20479;-60
2023/05/28 02:21:19;;;;;;;8.07;6.27;;;11.40;91.20;;;;;;5070748;28;20485;-60
2023/05/28 02:23:48;;;;;;;10.77;6.33;;;11.50;91.40;;;;;;5068271;28;20470;-61
2023/05/28 02:26:16;;;;;;;11.63;7.60;;;11.50;91.40;;;;;;5077707;28;20474;-60
2023/05/28 02:28:43;;;;;;;12.20;7.00;;;11.50;91.40;;;;;;5056736;27;20497;-61
2023/05/28 02:31:11;;;;;;;9.50;5.87;;;11.60;91.50;;;;;;5098485;27;20474;-61
2023/05/28 02:33:41;;;;;;;7.50;5.57;;;11.50;90.50;;;;;;5071501;28;20479;-61
2023/05/28 02:36:11;;;;;;;26.27;6.37;;;11.50;90.90;;;;;;5069439;27;20486;-61
2023/05/28 02:38:38;;;;;;;11.63;6.70;;;11.50;91.30;;;;;;5073881;28;20544;-60
2023/05/28 02:41:05;;;;;;;8.57;6.63;;;11.50;91.60;;;;;;5065713;28;20569;-60
2023/05/28 02:43:32;;;;;;;11.33;6.90;;;11.60;91.60;;;;;;5071439;28;20481;-60
2023/05/28 02:45:59;;;;;;;11.30;6.20;;;11.60;91.50;;;;;;5064299;28;20512;-60
2023/05/28 02:48:26;;;;;;;9.30;6.17;;;11.60;91.20;;;;;;5066582;28;20508;-61
2023/05/28 02:50:55;;;;;;;12.40;7.10;;;11.60;91.30;;;;;;5056839;28;20530;-61
2023/05/28 02:53:23;;;;;;;13.60;6.33;;;11.50;91.40;;;;;;5071905;28;20847;-61
2023/05/28 02:55:50;;;;;;;11.57;7.10;;;11.50;91.60;;;;;;5082617;27;21102;-60
2023/05/28 02:58:18;;;;;;;9.37;6.50;;;11.50;91.70;;;;;;5077029;27;21075;-60
2023/05/28 03:00:45;;;;;;;12.27;7.00;;;11.60;91.80;;;;;;5091956;27;20473;-60
2023/05/28 03:03:12;;;;;;;14.33;7.37;;;11.60;91.50;;;;;;5062796;28;20469;-59
2023/05/28 03:05:39;;;;;;;12.27;7.50;;;11.50;91.10;;;;;;5077571;27;20474;-59
2023/05/28 03:08:07;;;;;;;9.23;7.33;;;11.40;90.90;;;;;;5096930;27;20472;-59
2023/05/28 03:10:35;;;;;;;8.27;6.13;;;11.40;90.60;;;;;;5090573;27;20852;-60
2023/05/28 03:13:01;;;;;;;9.23;6.00;;;11.20;90.70;;;;;;5075060;28;20791;-60
2023/05/28 03:15:29;;;;;;;8.70;5.23;;;11.10;90.70;;;;;;5080459;27;20838;-60
2023/05/28 03:17:56;;;;;;;7.50;4.90;;;11.00;90.40;;;;;;5091254;27;20590;-60
2023/05/28 03:20:23;;;;;;;10.13;5.87;;;10.90;90.50;;;;;;5066040;28;20971;-59
2023/05/28 03:22:55;;;;;;;9.80;6.53;;;10.90;90.80;;;;;;5068362;28;20475;-59
2023/05/28 03:25:24;;;;;;;6.53;5.27;;;10.90;91.20;;;;;;5066797;28;20477;-60
2023/05/28 03:27:51;;;;;;;15.40;5.73;;;10.90;91.30;;;;;;5065170;27;20943;-60
2023/05/28 03:30:18;;;;;;;6.80;5.20;;;11.00;91.20;;;;;;5087724;27;21160;-59
2023/05/28 03:32:45;;;;;;;8.80;5.30;;;10.90;91.10;;;;;;5074010;28;20474;-59
2023/05/28 03:35:12;;;;;;;13.67;6.47;;;10.80;90.90;;;;;;5067083;28;20474;-59
2023/05/28 03:37:39;;;;;;;12.80;6.20;;;10.60;91.40;;;;;;5072279;27;20598;-60
2023/05/28 03:40:08;;;;;;;7.33;6.10;;;10.50;91.50;;;;;;5089232;27;20587;-60
2023/05/28 03:42:37;;;;;;;7.73;6.00;;;10.50;91.50;;;;;;5056662;28;20838;-60
2023/05/28 03:45:05;;;;;;;8.97;6.67;;;10.50;91.50;;;;;;5071361;28;21197;-60
2023/05/28 03:47:32;;;;;;;8.67;6.67;;;10.50;91.50;;;;;;5064197;28;20477;-60
2023/05/28 03:50:00;;;;;;;8.23;5.83;;;10.50;91.50;;;;;;5069350;27;20495;-60
2023/05/28 03:52:28;;;;;;;12.90;6.43;;;10.60;91.40;;;;;;5080536;27;20874;-60
2023/05/28 03:54:55;;;;;;;6.37;5.73;;;10.60;91.60;;;;;;5037410;28;20868;-60
2023/05/28 03:57:22;;;;;;;7.50;5.67;;;10.60;91.60;;;;;;5070478;28;20485;-60
2023/05/28 03:59:50;;;;;;;6.97;5.90;;;10.70;91.70;;;;;;5073303;28;21024;-60
2023/05/28 04:02:17;;;;;;;10.57;6.93;;;10.70;91.20;;;;;;5068860;28;20489;-60
2023/05/28 04:04:45;;;;;;;9.80;5.93;;;10.70;91.50;;;;;;5093463;27;20480;-60
2023/05/28 04:07:11;;;;;;;12.33;6.83;;;10.60;91.20;;;;;;5067650;28;20483;-60
2023/05/28 04:09:38;;;;;;;10.90;5.97;;;10.40;91.80;;;;;;5071795;28;20466;-59
2023/05/28 04:12:06;;;;;;;10.40;6.43;;;10.30;91.70;;;;;;5071602;27;20488;-60
2023/05/28 04:14:33;;;;;;;10.93;6.80;;;10.30;91.60;;;;;;5076274;27;20847;-60
2023/05/28 04:17:01;;;;;;;7.97;5.37;;;10.30;91.60;;;;;;5065465;28;20486;-60
2023/05/28 04:19:28;;;;;;;8.80;5.90;;;10.30;91.70;;;;;;5056305;28;20743;-60
2023/05/28 04:21:55;;;;;;;10.17;6.60;;;10.30;91.60;;;;;;5072200;28;20849;-59
2023/05/28 04:24:22;;;;;;;6.83;5.90;;;10.40;92.00;;;;;;5067929;28;20486;-60
2023/05/28 04:26:49;;;;;;;7.60;6.20;;;10.40;92.20;;;;;;5072579;28;20520;-60
2023/05/28 04:29:16;;;;;;;11.00;7.37;;;10.50;92.30;;;;;;5072960;27;20832;-60
2023/05/28 04:31:43;;;;;;;6.93;6.03;;;10.50;92.40;;;;;;5061716;28;20512;-60
2023/05/28 04:34:11;;;;;;;11.20;5.77;;;10.60;92.80;;;;;;5060768;28;21176;-59
2023/05/28 04:36:38;;;;;;;10.63;5.70;;;10.70;92.70;;;;;;5072237;28;20479;-60
2023/05/28 04:39:05;;;;;;;8.97;6.40;;;10.80;93.00;;;;;;5058393;28;20591;-60
2023/05/28 04:41:32;;;;;;;9.33;7.27;;;10.90;93.00;;;;;;5078872;27;20842;-60
2023/05/28 04:43:59;;;;;;;10.63;6.77;;;11.10;93.30;;;;;;5083648;27;21139;-60
2023/05/28 04:46:29;;;;;;;9.07;6.67;;;11.20;93.10;;;;;;5098104;27;20486;-60
2023/05/28 04:48:57;;;;;;;9.03;7.17;;;11.40;93.50;;;;;;5060578;28;20478;-60
2023/05/28 04:51:25;;;;;;;16.50;8.30;;;11.60;93.60;;;;;;5058305;27;20493;-60
2023/05/28 04:53:52;;;;;;;11.67;7.27;;;11.80;93.40;;;;;;5084560;27;20485;-60
2023/05/28 04:56:19;;;;;;;15.33;6.40;;;11.90;92.90;;;;;;5048093;27;20992;-60
2023/05/28 04:58:47;;;;;;;11.63;5.80;;;11.90;92.80;;;;;;5092236;27;20554;-60
2023/05/28 05:01:14;;;;;;;7.30;5.60;;;12.00;92.60;;;;;;5068950;27;20856;-60
2023/05/28 05:03:41;;;;;;;8.20;5.87;;;12.00;92.60;;;;;;5087208;27;21201;-60
2023/05/28 05:06:08;;;;;;;11.80;7.80;;;12.10;92.80;;;;;;5057788;27;20489;-60
2023/05/28 05:08:36;;;;;;;16.37;8.83;;;12.10;93.70;;;;;;5090274;27;20476;-60
2023/05/28 05:11:04;;;;;;;13.47;9.03;;;12.30;94.10;;;;;;5086338;27;20488;-60
2023/05/28 05:13:31;;;;;;;14.00;7.50;;;12.40;94.30;;;;;;5066273;28;20983;-60
2023/05/28 05:15:58;;;;;;;17.27;9.73;;;12.60;94.20;;;;;;5071146;27;20480;-59
2023/05/28 05:18:25;;;;;;;18.73;8.37;;;12.70;94.30;;;;;;5070276;27;20478;-60
2023/05/28 05:20:52;;;;;;;19.17;9.80;;;12.80;94.50;;;;;;5082606;27;20480;-60
2023/05/28 05:23:19;;;;;;;15.43;9.30;;;12.90;94.60;;;;;;5073038;27;20489;-60
2023/05/28 05:25:47;;;;;;;10.40;8.30;;;13.00;94.60;;;;;;5063030;28;21497;-60
2023/05/28 05:28:13;;;;;;;12.23;9.47;;;13.20;94.60;;;;;;5074186;27;20813;-60
2023/05/28 05:30:41;;;;;;;19.73;9.07;;;13.10;94.80;;;;;;5081705;27;20489;-60
2023/05/28 05:33:08;;;;;;;15.33;10.10;;;13.30;94.70;;;;;;5070742;28;20528;-60
2023/05/28 05:35:34;;;;;;;19.83;9.20;;;13.40;94.80;;;;;;5076184;28;21017;-60
2023/05/28 05:38:01;;;;;;;13.07;8.73;;;13.50;94.80;;;;;;5062041;28;20655;-60
2023/05/28 05:40:28;;;;;;;15.10;9.13;;;13.60;95.20;;;;;;5061584;28;20821;-60
2023/05/28 05:42:56;;;;;;;14.20;9.13;;;13.70;95.20;;;;;;5074568;28;21165;-60
2023/05/28 05:45:23;;;;;;;19.13;8.40;;;14.00;94.80;;;;;;5063764;27;20543;-60
2023/05/28 05:47:50;;;;;;;15.50;8.00;;;14.00;95.10;;;;;;5062126;28;20470;-60
2023/05/28 05:50:17;;;;;;;11.00;8.67;;;14.10;94.60;;;;;;5060145;28;20486;-60
2023/05/28 05:52:44;;;;;;;13.07;8.07;;;14.30;95.10;;;;;;5077994;27;20567;-60
2023/05/28 05:55:11;;;;;;;14.23;7.83;;;14.40;94.70;;;;;;5066709;27;20557;-60
2023/05/28 05:57:37;;;;;;;13.13;7.00;;;14.60;94.40;;;;;;5072630;27;20837;-60
2023/05/28 06:00:08;;;;;;;10.13;7.17;;;14.70;94.40;;;;;;5069486;28;20477;-61
2023/05/28 06:02:35;;;;;;;12.40;8.23;;;14.90;94.60;;;;;;5059044;27;20490;-60
2023/05/28 06:05:02;;;;;;;10.23;7.60;;;15.00;94.10;;;;;;5082256;27;20494;-60
2023/05/28 06:07:29;;;;;;;11.87;8.07;;;15.20;93.70;;;;;;5082342;28;20557;-60
2023/05/28 06:09:56;;;;;;;14.17;8.57;;;15.40;93.90;;;;;;5058126;28;20486;-60
2023/05/28 06:12:23;;;;;;;14.83;7.97;;;15.70;93.50;;;;;;5061963;28;20631;-60
2023/05/28 06:14:50;;;;;;;11.30;7.00;;;15.70;93.70;;;;;;5048468;27;20471;-60
2023/05/28 06:17:18;;;;;;;18.13;7.83;;;15.80;94.20;;;;;;5068640;28;20479;-60
2023/05/28 06:19:45;;;;;;;14.23;6.83;;;16.00;93.50;;;;;;5087209;27;20480;-60
2023/05/28 06:22:12;;;;;;;12.50;6.53;;;16.20;93.10;;;;;;5059096;27;21102;-61
2023/05/28 06:24:39;;;;;;;18.50;6.30;;;16.40;92.40;;;;;;5072847;27;20484;-61
2023/05/28 06:27:06;;;;;;;9.03;6.37;;;16.50;92.50;;;;;;5081311;27;20478;-61
2023/05/28 06:29:33;;;;;;;16.80;6.97;;;16.70;92.30;;;;;;5058340;27;20495;-61
2023/05/28 06:31:59;;;;;;;15.20;6.47;;;16.90;91.90;;;;;;5067232;28;20509;-61
2023/05/28 06:34:29;;;;;;;13.13;6.63;;;17.00;91.70;;;;;;5051660;27;20577;-61
2023/05/28 06:36:56;;;;;;;9.37;6.03;;;17.20;92.00;;;;;;5088222;28;21538;-61
2023/05/28 06:39:23;;;;;;;12.80;7.57;;;17.40;91.20;;;;;;5090018;27;20478;-61
2023/05/28 06:41:50;;;;;;;14.50;7.23;;;17.50;91.20;;;;;;5083349;27;20485;-61
2023/05/28 06:44:17;;;;;;;13.00;6.93;;;17.70;91.60;;;;;;5074815;27;20867;-61
2023/05/28 06:46:44;;;;;;;12.57;6.40;;;17.90;90.50;;;;;;5055681;27;20475;-61
2023/05/28 06:49:11;;;;;;;7.37;5.80;;;18.00;90.50;;;;;;5089507;27;20786;-61
2023/05/28 06:51:39;;;;;;;13.17;6.10;;;18.10;90.50;;;;;;5064234;28;21172;-61
2023/05/28 06:54:06;;;;;;;12.93;6.10;;;18.30;90.00;;;;;;5065764;27;20473;-61
2023/05/28 06:56:33;;;;;;;13.27;7.07;;;18.60;89.60;;;;;;5077952;28;20771;-61
2023/05/28 06:58:59;;;;;;;13.20;6.50;;;18.60;90.10;;;;;;5085423;27;20484;-61
2023/05/28 07:01:26;;;;;;;14.93;6.07;;;18.80;90.20;;;;;;5075724;27;20488;-61
2023/05/28 07:03:55;;;;;;;10.90;6.33;;;19.10;90.30;;;;;;5086708;27;20474;-61
2023/05/28 07:06:22;;;;;;;9.47;6.47;;;19.20;89.90;;;;;;5064398;27;20587;-61
2023/05/28 07:08:51;;;;;;;10.70;5.80;;;19.40;88.80;;;;;;5097759;27;20555;-61
2023/05/28 07:11:17;;;;;;;17.47;7.07;;;19.60;89.20;;;;;;5063133;27;20671;-62
2023/05/28 07:13:46;;;;;;;11.00;6.07;;;19.90;88.00;;;;;;5093678;27;20968;-61
2023/05/28 07:16:13;;;;;;;15.37;6.77;;;20.10;88.10;;;;;;5052272;27;20857;-61
2023/05/28 07:18:40;;;;;;;12.50;6.77;;;20.30;87.70;;;;;;5103161;27;20478;-61
2023/05/28 07:21:07;;;;;;;17.93;5.60;;;20.50;85.70;;;;;;5071640;28;20507;-61
2023/05/28 07:23:33;;;;;;;11.60;6.27;;;20.70;86.70;;;;;;5066883;28;20571;-61
2023/05/28 07:26:02;;;;;;;11.50;6.10;;;20.80;85.20;;;;;;5081681;27;20485;-61
2023/05/28 07:28:28;;;;;;;14.37;7.17;;;21.00;84.80;;;;;;5072082;27;20471;-61
2023/05/28 07:30:56;;;;;;;12.07;7.83;;;21.20;85.90;;;;;;5101748;27;20799;-61
2023/05/28 07:33:23;;;;;;;9.73;5.83;;;21.40;85.00;;;;;;5061848;28;20470;-61
2023/05/28 07:35:50;;;;;;;15.40;5.90;;;21.70;83.20;;;;;;5058255;27;21032;-61
2023/05/28 07:38:16;;;;;;;10.57;5.73;;;21.80;84.20;;;;;;5047969;27;20585;-62
2023/05/28 07:40:43;;;;;;;10.27;5.23;;;22.00;82.30;;;;;;5073678;28;20482;-61
2023/05/28 07:43:12;;;;;;;11.17;6.03;;;22.20;80.30;;;;;;5074354;28;20481;-61
2023/05/28 07:45:38;;;;;;;10.03;5.70;;;22.20;82.20;;;;;;5070605;28;20482;-61
2023/05/28 07:48:05;;;;;;;9.00;5.30;;;22.30;81.30;;;;;;5070839;28;21179;-61
2023/05/28 07:50:32;;;;;;;6.83;5.13;;;22.50;81.30;;;;;;5068236;28;20478;-61
2023/05/28 07:53:01;;;;;;;10.33;5.57;;;22.50;79.80;;;;;;5094326;27;20479;-61
2023/05/28 07:55:28;;;;;;;8.73;6.10;;;22.70;81.10;;;;;;5066788;28;20482;-61
2023/05/28 07:57:55;;;;;;;12.30;5.70;;;22.90;81.00;;;;;;5091543;27;20477;-61
2023/05/28 08:00:23;;;;;;;9.60;6.00;;;23.00;80.20;;;;;;5060082;28;20559;-61
2023/05/28 08:02:50;;;;;;;11.63;5.80;;;23.20;81.90;;;;;;5065596;28;20458;-61
2023/05/28 08:05:18;;;;;;;13.47;5.90;;;23.30;81.20;;;;;;5072792;27;20564;-61
2023/05/28 08:07:45;;;;;;;9.47;6.07;;;23.50;80.70;;;;;;5101442;27;20489;-61
2023/05/28 08:10:12;;;;;;;12.60;6.90;;;23.60;78.90;;;;;;5072815;27;20477;-61
2023/05/28 08:12:39;;;;;;;8.03;5.90;;;23.80;77.70;;;;;;5087713;27;20506;-61
2023/05/28 08:15:06;;;;;;;8.50;5.20;;;23.90;78.90;;;;;;5070713;28;20478;-61
2023/05/28 08:17:35;;;;;;;13.67;6.27;;;24.00;78.60;;;;;;5065126;28;20479;-61
2023/05/28 08:20:01;;;;;;;10.40;6.87;;;24.10;80.10;;;;;;5073031;28;20485;-61
2023/05/28 08:22:31;;;;;;;8.30;5.40;;;24.20;78.90;;;;;;5060325;28;20483;-62
2023/05/28 08:24:58;;;;;;;9.07;4.87;;;24.20;77.20;;;;;;5044228;28;20474;-61
2023/05/28 08:27:24;;;;;;;14.30;5.90;;;24.20;77.50;;;;;;5082963;27;21019;-61
2023/05/28 08:29:51;;;;;;;7.33;5.73;;;24.20;78.30;;;;;;5052637;27;20483;-61
2023/05/28 08:32:18;;;;;;;10.20;6.40;;;24.30;78.50;;;;;;5092790;27;21464;-62
2023/05/28 08:34:46;;;;;;;11.03;5.57;;;24.50;77.50;;;;;;5090096;27;20474;-62
2023/05/28 08:37:14;;;;;;;8.63;6.07;;;24.70;80.00;;;;;;5072315;27;21052;-62
2023/05/28 08:39:41;;;;;;;10.00;6.13;;;24.80;79.50;;;;;;5079865;27;20461;-62
2023/05/28 08:42:08;;;;;;;8.97;5.50;;;25.10;79.70;;;;;;5073361;27;20493;-62
2023/05/28 08:44:35;;;;;;;13.30;5.57;;;25.30;78.50;;;;;;5083345;27;20473;-62
2023/05/28 08:47:03;;;;;;;10.20;6.33;;;25.50;76.90;;;;;;5068517;27;20479;-62
2023/05/28 08:49:33;;;;;;;7.47;5.60;;;25.50;77.10;;;;;;5080105;27;20474;-63
2023/05/28 08:52:03;;;;;;;5.63;4.40;;;25.80;77.40;;;;;;5076868;27;20491;-62
2023/05/28 08:54:34;;;;;;;8.13;4.90;;;25.90;75.80;;;;;;5052189;28;20503;-62
2023/05/28 08:57:02;;;;;;;14.13;5.40;;;26.10;75.20;;;;;;5047824;27;20468;-62
2023/05/28 08:59:31;;;;;;;8.20;5.83;;;26.10;75.00;;;;;;5062456;28;20479;-62
2023/05/28 09:01:57;;;;;;;7.27;5.13;;;26.30;74.70;;;;;;5071452;28;20735;-62
2023/05/28 09:04:24;;;;;;;10.47;5.53;;;26.40;70.20;;;;;;5072360;28;20992;-62
2023/05/28 09:06:52;;;;;;;13.23;6.10;;;26.50;72.70;;;;;;5072330;28;20478;-62
2023/05/28 09:09:21;;;;;;;8.70;5.23;;;26.60;72.00;;;;;;5070780;28;20792;-62
2023/05/28 09:11:48;;;;;;;14.33;7.07;;;26.60;72.00;;;;;;5072870;28;20486;-62
2023/05/28 09:14:17;;;;;;;9.10;5.60;;;26.80;74.10;;;;;;5060242;27;20468;-62
2023/05/28 09:16:45;;;;;;;8.47;5.50;;;26.90;68.80;;;;;;5087663;27;20804;-62
2023/05/28 09:19:16;;;;;;;7.13;5.70;;;27.00;69.30;;;;;;5065917;28;20835;-63
2023/05/28 09:21:53;;;;;;;17.80;5.47;;;27.10;69.80;;;;;;5047897;27;20459;-63
2023/05/28 09:24:22;;;;;;;8.63;4.80;;;27.10;69.50;;;;;;5091866;27;20480;-62
2023/05/28 09:26:50;;;;;;;10.00;5.17;;;27.30;71.70;;;;;;5085151;27;20542;-63
2023/05/28 09:29:17;;;;;;;9.83;5.60;;;27.50;70.50;;;;;;5041878;27;20468;-63
2023/05/28 09:31:44;;;;;;;8.90;4.83;;;27.70;72.10;;;;;;5094856;27;20555;-63
2023/05/28 09:34:11;;;;;;;17.17;5.40;;;27.90;71.60;;;;;;5064548;28;20461;-62
2023/05/28 09:36:38;;;;;;;10.20;5.20;;;27.90;68.10;;;;;;5086000;27;20475;-62
2023/05/28 09:39:08;;;;;;;8.40;5.10;;;28.00;69.10;;;;;;5054734;27;21030;-63
2023/05/28 09:41:47;;;;;;;10.03;6.03;;;28.10;67.00;;;;;;5061610;27;20964;-63
2023/05/28 09:44:14;;;;;;;8.80;6.80;;;28.20;69.60;;;;;;5060544;27;20497;-63
2023/05/28 09:46:47;;;;;;;8.07;5.60;;;28.30;69.50;;;;;;5052177;28;20526;-62
2023/05/28 09:49:14;;;;;;;9.27;6.37;;;28.30;70.30;;;;;;5052722;28;20460;-63
2023/05/28 09:51:47;;;;;;;10.67;6.30;;;28.40;67.60;;;;;;5047632;28;20454;-62
2023/05/28 09:54:14;;;;;;;9.40;6.07;;;28.50;65.70;;;;;;5068693;28;20473;-63
2023/05/28 09:56:43;;;;;;;8.50;5.53;;;28.60;66.20;;;;;;5076981;27;20486;-62
2023/05/28 09:59:13;;;;;;;4.83;3.80;;;28.70;68.20;;;;;;5078763;27;20458;-63
2023/05/28 10:01:47;;;;;;;7.73;5.27;;;28.80;67.20;;;;;;5077363;27;20468;-63
2023/05/28 10:04:17;;;;;;;6.00;4.50;;;28.90;65.40;;;;;;5064017;27;20454;-63
2023/05/28 10:06:45;;;;;;;10.87;5.63;;;28.60;61.40;;;;;;5080169;27;20459;-63
2023/05/28 10:09:15;;;;;;;13.70;5.00;;;28.50;65.10;;;;;;5077885;27;20488;-63
2023/05/28 10:11:44;;;;;;;8.80;5.30;;;28.30;64.80;;;;;;5076106;27;20816;-63
2023/05/28 10:14:12;;;;;;;9.60;5.13;;;28.20;63.60;;;;;;5080603;27;20832;-63
2023/05/28 10:16:40;;;;;;;10.10;6.00;;;28.10;65.70;;;;;;5084556;27;20455;-62
2023/05/28 10:19:06;;;;;;;8.93;5.80;;;28.20;67.40;;;;;;5078547;27;20485;-63
2023/05/28 10:21:34;;;;;;;10.70;5.80;;;28.10;65.80;;;;;;5076781;27;20451;-63
2023/05/28 10:24:00;;;;;;;12.80;5.60;;;28.10;66.40;;;;;;5081637;27;20780;-63
2023/05/28 10:26:27;;;;;;;7.53;5.57;;;28.10;61.30;;;;;;5075029;27;20461;-63
2023/05/28 10:28:55;;;;;;;6.90;4.60;;;28.30;67.70;;;;;;5088577;27;20450;-63
2023/05/28 10:31:24;;;;;;;8.23;4.90;;;28.40;64.40;;;;;;5071779;27;20888;-63
2023/05/28 10:33:51;;;;;;;7.40;4.87;;;28.40;63.00;;;;;;5058856;27;20451;-63
2023/05/28 10:36:19;;;;;;;15.83;4.90;;;28.30;60.00;;;;;;5070521;27;20718;-63
2023/05/28 10:38:57;;;;;;;6.10;4.90;;;28.20;60.70;;;;;;5088558;27;20454;-63
2023/05/28 10:41:25;;;;;;;8.27;4.97;;;28.40;65.10;;;;;;5087113;27;20788;-63
2023/05/28 10:43:52;;;;;;;8.20;4.03;;;28.50;65.80;;;;;;5083932;27;20486;-63
2023/05/28 10:46:20;;;;;;;8.47;5.37;;;28.40;59.40;;;;;;5078369;27;20454;-63
2023/05/28 10:49:16;;;;;;;6.67;5.07;;;28.50;62.90;;;;;;5085699;27;20474;-63
2023/05/28 10:51:47;;;;;;;8.00;4.27;;;28.60;64.00;;;;;;5059753;27;20505;-63
2023/05/28 10:54:23;;;;;;;5.60;4.40;;;28.80;60.00;;;;;;5076566;28;20449;-63
2023/05/28 10:57:11;;;;;;;7.40;4.63;;;28.80;60.10;;;;;;5063169;28;20469;-64
2023/05/28 10:59:49;;;;;;;14.17;4.60;;;28.90;61.50;;;;;;5064901;28;20476;-63
2023/05/28 11:02:22;;;;;;;7.73;4.60;;;29.00;59.70;;;;;;5068491;28;20450;-63
2023/05/28 11:04:53;;;;;;;11.77;5.17;;;29.10;62.40;;;;;;5067622;28;20488;-63
2023/05/28 11:07:21;;;;;;;6.77;4.23;;;29.10;60.80;;;;;;5068989;28;20834;-63
2023/05/28 11:09:50;;;;;;;6.30;4.40;;;28.90;57.20;;;;;;5070543;28;20481;-63
2023/05/28 11:12:17;;;;;;;9.50;5.40;;;28.90;57.90;;;;;;5059352;28;20880;-64
2023/05/28 11:14:44;;;;;;;10.27;5.20;;;28.90;57.70;;;;;;5070715;28;20455;-64
2023/05/28 11:17:12;;;;;;;12.07;4.80;;;28.90;58.60;;;;;;5071415;28;20457;-63
2023/05/28 11:19:41;;;;;;;9.60;5.20;;;29.00;62.30;;;;;;5070248;28;20839;-63
2023/05/28 11:22:09;;;;;;;8.97;4.20;;;29.10;59.40;;;;;;5055878;28;20481;-64
2023/05/28 11:24:55;;;;;;;5.40;4.50;;;29.10;57.60;;;;;;5070863;27;20451;-64
2023/05/28 11:27:22;;;;;;;6.83;5.00;;;29.20;61.20;;;;;;5060670;28;20467;-63
2023/05/28 11:29:50;;;;;;;8.70;5.10;;;29.10;59.30;;;;;;5069911;28;20457;-64
2023/05/28 11:32:20;;;;;;;22.47;5.80;;;29.30;61.80;;;;;;5064014;28;20575;-64
2023/05/28 11:34:49;;;;;;;6.07;5.13;;;29.30;62.60;;;;;;5059613;28;20455;-64
2023/05/28 11:37:24;;;;;;;7.83;5.80;;;29.40;61.30;;;;;;5064730;28;20496;-64
2023/05/28 11:39:51;;;;;;;8.37;4.20;;;29.50;60.50;;;;;;5057564;28;20459;-63
2023/05/28 11:42:18;;;;;;;11.43;5.30;;;29.20;59.90;;;;;;5061578;28;20448;-63
2023/05/28 11:44:45;;;;;;;13.23;5.30;;;29.30;59.70;;;;;;5070034;28;20452;-63
2023/05/28 11:47:13;;;;;;;13.73;5.77;;;29.30;61.80;;;;;;5069843;28;20766;-64
2023/05/28 11:49:40;;;;;;;10.90;5.20;;;29.60;61.90;;;;;;5063135;28;20476;-63
2023/05/28 11:52:11;;;;;;;11.20;5.67;;;29.90;62.80;;;;;;5073131;28;20467;-63
2023/05/28 11:54:40;;;;;;;8.70;5.20;;;30.00;61.20;;;;;;5065562;28;20488;-64
2023/05/28 11:57:07;;;;;;;14.37;5.10;;;29.90;59.20;;;;;;5068381;28;20451;-64
2023/05/28 11:59:34;;;;;;;8.73;5.70;;;29.70;57.50;;;;;;5065736;28;20662;-64
2023/05/28 12:02:15;;;;;;;8.77;5.50;;;29.70;60.00;;;;;;5064663;28;20459;-64
2023/05/28 12:04:54;;;;;;;8.37;5.50;;;29.70;57.70;;;;;;5067612;28;20486;-63
2023/05/28 12:07:21;;;;;;;8.27;4.60;;;29.80;59.50;;;;;;5055845;28;20478;-64
2023/05/28 12:09:49;;;;;;;6.80;5.43;;;29.70;61.30;;;;;;5055280;28;20479;-64
2023/05/28 12:12:16;;;;;;;9.00;4.50;;;29.70;59.60;;;;;;5073358;28;21133;-64
2023/05/28 12:14:47;;;;;;;9.43;5.17;;;29.70;60.40;;;;;;5062067;28;20881;-64
2023/05/28 12:17:14;;;;;;;9.47;4.77;;;29.70;59.40;;;;;;5056682;28;20534;-64
2023/05/28 12:19:41;;;;;;;6.33;4.83;;;29.60;57.40;;;;;;5077509;28;20809;-64
2023/05/28 12:22:16;;;;;;;6.70;4.80;;;29.70;58.60;;;;;;5060902;28;20858;-64
2023/05/28 12:24:51;;;;;;;7.67;5.23;;;29.70;58.90;;;;;;5057395;28;20476;-64
2023/05/28 12:27:18;;;;;;;7.10;4.37;;;29.70;55.90;;;;;;5074973;28;20451;-64
2023/05/28 12:29:45;;;;;;;5.00;4.23;;;29.70;57.20;;;;;;5066316;28;20489;-64
2023/05/28 12:32:12;;;;;;;5.60;4.67;;;29.80;57.00;;;;;;5055698;28;20477;-64
2023/05/28 12:34:39;;;;;;;9.73;5.30;;;29.80;57.80;;;;;;5072597;28;21028;-63
2023/05/28 12:37:06;;;;;;;7.00;5.00;;;29.90;60.40;;;;;;5059328;28;20924;-63
2023/05/28 12:39:35;;;;;;;9.70;5.80;;;29.90;57.70;;;;;;5052402;28;20489;-64
2023/05/28 12:42:05;;;;;;;8.83;4.80;;;29.90;57.60;;;;;;5058871;28;20456;-64
2023/05/28 12:44:31;;;;;;;6.97;5.20;;;30.10;57.90;;;;;;5064131;28;20883;-64